Terminal Aerodrome Forecast
Issued by NWS

Home | Current Version | Previous Version | Text Only | Print | Product List | Glossary On
Versions: 1 2 3 4 5 6 7 8 9 10 11 12 13 14 15 16 17 18 19 20 21 22 23 24 25 26 27 28
000
FTUS44 KLIX 202320
TAFHUM
TAF
KHUM 202320Z 2100/2124 17003KT P6SM FEW040
     FM211200 01004KT P6SM SCT110
     FM211700 15004KT P6SM SCT040 PROB30 2118/2122 4SM -TSRA
      OVC040CB=

USA.gov is the U.S. government's official web portal to all federal, state and local government web resources and services.